createdAt,value
2019-05-09T00:00:27.378Z,99409.64
2019-05-09T00:03:18.638Z,99406.12
2019-05-09T00:06:09.997Z,99403.41
2019-05-09T00:09:06.049Z,99412.34
2019-05-09T00:11:58.414Z,99407.63
2019-05-09T00:14:50.137Z,99411.20
2019-05-09T00:17:43.944Z,99410.94
2019-05-09T00:20:43.580Z,99415.70
2019-05-09T00:23:34.578Z,99412.27
2019-05-09T00:26:25.858Z,99412.32
2019-05-09T00:29:33.534Z,99410.00
2019-05-09T00:32:35.714Z,99405.81
2019-05-09T00:35:35.005Z,99406.09
2019-05-09T00:38:33.404Z,99404.39
2019-05-09T00:41:25.324Z,99400.80
2019-05-09T00:44:23.237Z,99408.47
2019-05-09T00:47:24.443Z,99400.83
2019-05-09T00:50:16.905Z,99402.25
2019-05-09T00:53:08.487Z,99400.98
2019-05-09T00:56:00.804Z,99401.34
2019-05-09T00:58:53.497Z,99388.41
2019-05-09T01:01:45.200Z,99384.95
2019-05-09T01:04:36.758Z,99383.17
2019-05-09T01:07:28.208Z,99380.88
2019-05-09T01:10:19.548Z,99378.89
2019-05-09T01:13:11.076Z,99375.19
2019-05-09T01:16:04.569Z,99378.23
2019-05-09T01:18:55.519Z,99375.70
2019-05-09T01:21:47.172Z,99374.80
2019-05-09T01:24:38.561Z,99371.46
2019-05-09T01:27:29.985Z,99370.03
2019-05-09T01:30:24.036Z,99368.20
2019-05-09T01:33:46.182Z,99361.92
2019-05-09T01:36:55.673Z,99363.84
2019-05-09T01:39:46.960Z,99362.39
2019-05-09T01:42:38.342Z,99365.64
2019-05-09T01:45:29.900Z,99363.00
2019-05-09T01:48:23.303Z,99364.27
2019-05-09T01:51:14.373Z,99370.80
2019-05-09T01:54:07.121Z,99371.16
2019-05-09T01:56:58.453Z,99365.79
2019-05-09T01:59:49.999Z,99365.23
2019-05-09T02:02:43.263Z,99367.78
2019-05-09T02:05:34.127Z,99366.95
2019-05-09T02:08:25.437Z,99364.80
2019-05-09T02:11:16.823Z,99364.22
2019-05-09T02:14:09.209Z,99359.47
2019-05-09T02:17:20.544Z,99361.44
2019-05-09T02:20:13.615Z,99362.50
2019-05-09T02:23:05.208Z,99363.44
2019-05-09T02:25:56.441Z,99357.32
2019-05-09T02:28:47.810Z,99361.33
2019-05-09T02:31:39.388Z,99359.54
2019-05-09T02:34:30.815Z,99355.17
2019-05-09T02:37:22.021Z,99355.85
2019-05-09T02:40:13.960Z,99358.77
2019-05-09T02:43:05.303Z,99359.96
2019-05-09T02:46:09.436Z,99354.09
2019-05-09T02:48:59.642Z,99359.30
2019-05-09T02:51:51.223Z,99354.72
2019-05-09T02:54:43.033Z,99353.63
2019-05-09T02:57:34.780Z,99346.34
2019-05-09T03:00:33.824Z,99344.75
2019-05-09T03:03:30.460Z,99344.64
2019-05-09T03:06:21.736Z,99346.07
2019-05-09T03:09:13.195Z,99345.27
2019-05-09T03:12:21.317Z,99342.84
2019-05-09T03:14:58.745Z,99342.30
2019-05-09T03:17:50.534Z,99342.25
2019-05-09T03:21:19.202Z,99340.33
2019-05-09T03:24:10.030Z,99331.20
2019-05-09T03:27:08.561Z,99334.89
2019-05-09T03:30:00.464Z,99332.48
2019-05-09T03:32:51.775Z,99334.03
2019-05-09T03:35:43.391Z,99334.73
2019-05-09T03:38:34.871Z,99332.50
2019-05-09T03:41:28.243Z,99327.48
2019-05-09T03:44:19.385Z,99330.06
2019-05-09T03:47:29.884Z,99330.77
2019-05-09T03:50:21.259Z,99325.30
2019-05-09T03:53:12.787Z,99328.52
2019-05-09T03:56:07.956Z,99327.77
2019-05-09T03:58:59.596Z,99321.77
2019-05-09T04:01:50.853Z,99318.88
2019-05-09T04:04:43.115Z,99320.29
2019-05-09T04:07:34.633Z,99325.09
2019-05-09T04:10:28.082Z,99324.66
2019-05-09T04:13:20.172Z,99329.61
2019-05-09T04:16:12.349Z,99323.30
2019-05-09T04:19:04.704Z,99324.48
2019-05-09T04:21:57.560Z,99327.17
2019-05-09T04:24:49.758Z,99330.20
2019-05-09T04:27:43.563Z,99332.76
2019-05-09T04:30:34.927Z,99333.82
2019-05-09T04:33:28.041Z,99336.13
2019-05-09T04:36:22.494Z,99339.48
2019-05-09T04:39:21.024Z,99342.12
2019-05-09T04:42:08.397Z,99339.34
2019-05-09T04:45:10.319Z,99335.66
2019-05-09T04:48:01.701Z,99341.03
2019-05-09T04:50:56.440Z,99345.43
2019-05-09T04:53:48.010Z,99347.92
2019-05-09T04:56:41.329Z,99346.09
2019-05-09T04:59:32.965Z,99355.61
2019-05-09T05:02:31.890Z,99350.00
2019-05-09T05:05:23.184Z,99350.28
2019-05-09T05:08:14.485Z,99341.43
2019-05-09T05:11:07.501Z,99333.88
2019-05-09T05:13:58.886Z,99340.63
2019-05-09T05:16:54.870Z,99339.67
2019-05-09T05:19:47.613Z,99343.33
2019-05-09T05:22:44.291Z,99345.98
2019-05-09T05:25:38.274Z,99353.55
2019-05-09T05:28:29.510Z,99356.66
2019-05-09T05:31:20.875Z,99358.72
2019-05-09T05:34:18.237Z,99360.63
2019-05-09T05:37:10.569Z,99363.81
2019-05-09T05:40:01.866Z,99361.67
2019-05-09T05:42:53.697Z,99362.98
2019-05-09T05:46:01.791Z,99367.72
2019-05-09T05:48:54.069Z,99370.45
2019-05-09T05:51:51.701Z,99375.13
2019-05-09T05:54:43.315Z,99379.25
2019-05-09T05:57:34.720Z,99373.55
2019-05-09T06:00:28.544Z,99375.69
2019-05-09T06:03:20.480Z,99377.43
2019-05-09T06:06:12.046Z,99376.19
2019-05-09T06:09:03.300Z,99380.66
2019-05-09T06:11:57.086Z,99388.00
2019-05-09T06:14:48.191Z,99386.14
2019-05-09T06:17:39.688Z,99384.80
2019-05-09T06:20:31.425Z,99385.34
2019-05-09T06:23:22.836Z,99380.66
2019-05-09T06:26:14.182Z,99385.45
2019-05-09T06:29:05.506Z,99388.53
2019-05-09T06:31:58.432Z,99391.66
2019-05-09T06:34:50.491Z,99391.50
2019-05-09T06:37:42.056Z,99394.98
2019-05-09T06:40:35.017Z,99395.47
2019-05-09T06:43:29.148Z,99400.36
2019-05-09T06:46:37.957Z,99395.12
2019-05-09T06:49:34.795Z,99397.45
2019-05-09T06:52:28.190Z,99395.02
2019-05-09T06:55:20.189Z,99395.31
2019-05-09T06:58:31.221Z,99391.55
2019-05-09T07:01:43.397Z,99393.20
2019-05-09T07:04:58.202Z,99399.45
2019-05-09T07:08:14.762Z,99398.36
2019-05-09T07:11:07.572Z,99404.91
2019-05-09T07:13:59.342Z,99405.38
2019-05-09T07:16:52.879Z,99411.72
2019-05-09T07:19:45.023Z,99411.48
2019-05-09T07:22:44.430Z,99412.56
2019-05-09T07:25:45.189Z,99412.48
2019-05-09T07:28:37.673Z,99408.30
2019-05-09T07:31:43.341Z,99408.64
2019-05-09T07:34:39.622Z,99408.28
2019-05-09T07:37:31.026Z,99408.34
2019-05-09T07:40:26.884Z,99404.70
2019-05-09T07:43:18.014Z,99403.92
2019-05-09T07:46:34.834Z,99409.70
2019-05-09T07:49:28.247Z,99414.48
2019-05-09T07:52:19.559Z,99413.49
2019-05-09T07:55:11.111Z,99418.52
2019-05-09T07:58:02.772Z,99423.61
2019-05-09T08:00:59.126Z,99434.78
2019-05-09T08:03:48.971Z,99433.02
2019-05-09T08:06:40.912Z,99432.08
2019-05-09T08:09:32.661Z,99435.53
2019-05-09T08:12:24.162Z,99440.75
2019-05-09T08:15:17.433Z,99435.82
2019-05-09T08:18:08.871Z,99439.35
2019-05-09T08:21:00.377Z,99441.08
2019-05-09T08:23:52.207Z,99446.00
2019-05-09T08:26:43.904Z,99451.11
2019-05-09T08:29:35.387Z,99454.64
2019-05-09T08:32:28.670Z,99462.44
2019-05-09T08:35:21.220Z,99462.02
2019-05-09T08:38:12.606Z,99463.09
2019-05-09T08:41:09.085Z,99474.16
2019-05-09T08:44:01.248Z,99476.55
2019-05-09T08:46:52.844Z,99479.62
2019-05-09T08:49:52.448Z,99483.29
2019-05-09T08:52:44.136Z,99491.25
2019-05-09T08:55:38.138Z,99486.30
2019-05-09T08:58:29.297Z,99495.25
2019-05-09T09:01:30.957Z,99499.88
2019-05-09T09:04:13.973Z,99502.39
2019-05-09T09:07:08.157Z,99512.41
2019-05-09T09:09:58.645Z,99516.86
2019-05-09T09:12:50.384Z,99516.95
2019-05-09T09:16:11.726Z,99520.40
2019-05-09T09:18:34.687Z,99523.71
2019-05-09T09:21:28.413Z,99519.64
2019-05-09T09:24:19.073Z,99527.91
2019-05-09T09:27:10.637Z,99535.16
2019-05-09T09:30:16.453Z,99538.15
2019-05-09T09:32:55.002Z,99547.23
2019-05-09T09:35:49.000Z,99554.64
2019-05-09T09:38:39.449Z,99555.64
2019-05-09T09:41:30.959Z,99554.85
2019-05-09T09:44:22.635Z,99557.89
2019-05-09T09:47:19.528Z,99554.48
2019-05-09T09:50:08.760Z,99558.25
2019-05-09T09:53:00.602Z,99566.95
2019-05-09T09:55:52.169Z,99576.27
2019-05-09T09:58:45.369Z,99582.60
2019-05-09T10:01:40.220Z,99587.91
2019-05-09T10:04:31.512Z,99594.19
2019-05-09T10:07:22.956Z,99597.84
2019-05-09T10:10:33.373Z,99603.89
2019-05-09T10:13:24.819Z,99616.53
2019-05-09T10:16:40.844Z,99615.73
2019-05-09T10:19:44.534Z,99619.02
2019-05-09T10:22:44.717Z,99619.30
2019-05-09T10:25:29.425Z,99618.93
2019-05-09T10:28:21.778Z,99624.89
2019-05-09T10:31:15.113Z,99622.56
2019-05-09T10:34:06.589Z,99619.31
2019-05-09T10:36:58.379Z,99617.38
2019-05-09T10:39:50.362Z,99612.09
2019-05-09T10:42:53.230Z,99621.83
2019-05-09T10:46:19.099Z,99613.09
2019-05-09T10:49:09.730Z,99617.49
2019-05-09T10:52:01.235Z,99622.27
2019-05-09T10:54:53.827Z,99623.84
2019-05-09T10:57:51.240Z,99626.56
2019-05-09T11:00:39.538Z,99634.70
2019-05-09T11:03:31.495Z,99633.13
2019-05-09T11:06:22.977Z,99640.91
2019-05-09T11:09:14.334Z,99653.27
2019-05-09T11:12:07.883Z,99656.53
2019-05-09T11:14:59.624Z,99652.80
2019-05-09T11:17:52.565Z,99657.13
2019-05-09T11:20:44.158Z,99656.52
2019-05-09T11:23:35.702Z,99659.08
2019-05-09T11:26:28.462Z,99660.70
2019-05-09T11:29:20.249Z,99659.77
2019-05-09T11:32:11.855Z,99653.71
2019-05-09T11:35:03.560Z,99652.72
2019-05-09T11:37:55.047Z,99657.05
2019-05-09T11:40:48.294Z,99659.59
2019-05-09T11:43:39.816Z,99663.88
2019-05-09T11:46:31.178Z,99659.52
2019-05-09T11:49:22.706Z,99663.57
2019-05-09T11:52:14.049Z,99663.64
2019-05-09T11:55:07.987Z,99667.14
2019-05-09T11:57:59.310Z,99674.24
2019-05-09T12:00:52.565Z,99669.64
2019-05-09T12:03:43.907Z,99673.48
2019-05-09T12:06:38.106Z,99675.02
2019-05-09T12:09:29.676Z,99675.86
2019-05-09T12:12:21.011Z,99675.16
2019-05-09T12:15:13.356Z,99669.02
2019-05-09T12:18:11.237Z,99668.28
2019-05-09T12:20:59.212Z,99668.11
2019-05-09T12:23:50.586Z,99675.14
2019-05-09T12:26:42.098Z,99686.43
2019-05-09T12:29:33.544Z,99686.89
2019-05-09T12:32:24.993Z,99684.70
2019-05-09T12:35:18.922Z,99676.34
2019-05-09T12:38:10.232Z,99673.16
2019-05-09T12:41:01.649Z,99672.98
2019-05-09T12:43:53.149Z,99677.92
2019-05-09T12:46:44.821Z,99694.90
2019-05-09T12:49:38.620Z,99705.81
2019-05-09T12:52:29.572Z,99719.49
2019-05-09T12:55:21.160Z,99727.13
2019-05-09T12:58:27.967Z,99727.27
2019-05-09T13:01:19.724Z,99739.41
2019-05-09T13:04:10.999Z,99743.66
2019-05-09T13:07:02.557Z,99744.27
2019-05-09T13:09:53.814Z,99729.59
2019-05-09T13:12:47.582Z,99726.98
2019-05-09T13:15:44.589Z,99727.73
2019-05-09T13:18:53.969Z,99727.98
2019-05-09T13:21:45.776Z,99727.67
2019-05-09T13:24:37.929Z,99732.59
2019-05-09T13:27:29.566Z,99736.70
2019-05-09T13:30:22.477Z,99741.27
2019-05-09T13:33:14.262Z,99763.16
2019-05-09T13:36:05.820Z,99797.84
2019-05-09T13:39:04.140Z,99802.61
2019-05-09T13:41:50.387Z,99795.08
2019-05-09T13:44:42.405Z,99795.19
2019-05-09T13:47:33.886Z,99807.20
2019-05-09T13:50:25.307Z,99810.69
2019-05-09T13:53:19.123Z,99809.20
2019-05-09T13:56:09.931Z,99799.63
2019-05-09T13:59:01.391Z,99796.23
2019-05-09T14:01:53.089Z,99795.75
2019-05-09T14:04:44.838Z,99792.79
2019-05-09T14:07:37.697Z,99799.05
2019-05-09T14:10:29.229Z,99792.97
2019-05-09T14:13:23.400Z,99795.86
2019-05-09T14:16:19.434Z,99804.77
2019-05-09T14:19:26.055Z,99812.61
2019-05-09T14:22:00.619Z,99814.89
2019-05-09T14:24:52.367Z,99819.20
2019-05-09T14:27:48.958Z,99823.95
2019-05-09T14:30:39.025Z,99826.59
2019-05-09T14:33:32.572Z,99820.42
2019-05-09T14:36:24.810Z,99821.76
2019-05-09T14:39:18.024Z,99826.33
2019-05-09T14:42:10.146Z,99842.48
2019-05-09T14:45:02.507Z,99844.88
2019-05-09T14:47:54.834Z,99852.74
2019-05-09T14:50:46.999Z,99853.64
2019-05-09T14:53:39.486Z,99857.16
2019-05-09T14:56:32.378Z,99862.80
2019-05-09T14:59:24.343Z,99864.25
2019-05-09T15:02:17.885Z,99864.30
2019-05-09T15:05:10.820Z,99867.00
2019-05-09T15:08:02.721Z,99865.48
2019-05-09T15:10:54.527Z,99870.13
2019-05-09T15:13:47.775Z,99880.13
2019-05-09T15:16:39.729Z,99880.80
2019-05-09T15:19:31.557Z,99886.90
2019-05-09T15:22:25.154Z,99883.27
2019-05-09T15:25:19.644Z,99894.17
2019-05-09T15:28:11.231Z,99897.20
2019-05-09T15:31:03.250Z,99907.70
2019-05-09T15:33:55.060Z,99916.21
2019-05-09T15:36:48.344Z,99916.67
2019-05-09T15:39:39.852Z,99918.98
2019-05-09T15:42:31.861Z,99919.11
2019-05-09T15:45:24.745Z,99925.37
2019-05-09T15:48:18.116Z,99925.45
2019-05-09T15:51:09.492Z,99923.83
2019-05-09T15:54:01.223Z,99923.28
2019-05-09T15:56:53.705Z,99917.14
2019-05-09T15:59:44.966Z,99924.78
2019-05-09T16:02:39.029Z,99928.19
2019-05-09T16:05:31.889Z,99927.59
2019-05-09T16:08:23.533Z,99930.20
2019-05-09T16:11:37.813Z,99934.03
2019-05-09T16:14:50.088Z,99933.41
2019-05-09T16:17:42.879Z,99938.00
2019-05-09T16:20:37.329Z,99941.63
2019-05-09T16:23:29.064Z,99940.52
2019-05-09T16:26:21.670Z,99942.48
2019-05-09T16:29:13.417Z,99949.03
2019-05-09T16:32:08.595Z,99953.65
2019-05-09T16:34:58.860Z,99951.12
2019-05-09T16:38:01.339Z,99951.16
2019-05-09T16:40:43.885Z,99951.28
2019-05-09T16:43:38.579Z,99962.97
2019-05-09T16:46:28.799Z,99959.58
2019-05-09T16:49:20.569Z,99961.18
2019-05-09T16:52:12.105Z,99963.19
2019-05-09T16:55:08.333Z,99967.60
2019-05-09T16:58:00.825Z,99969.47
2019-05-09T17:00:53.193Z,99972.61
2019-05-09T17:03:44.684Z,99971.22
2019-05-09T17:06:38.207Z,99979.00
2019-05-09T17:09:29.875Z,99972.77
2019-05-09T17:12:21.157Z,99974.29
2019-05-09T17:15:19.028Z,99990.34
2019-05-09T17:18:10.397Z,99985.38
2019-05-09T17:21:28.114Z,99988.66
2019-05-09T17:24:20.029Z,99994.31
2019-05-09T17:27:12.337Z,99994.96
2019-05-09T17:30:03.896Z,99994.64
2019-05-09T17:32:55.609Z,99996.61
2019-05-09T17:35:48.293Z,99996.47
2019-05-09T17:38:40.126Z,100003.67
2019-05-09T17:41:31.444Z,100013.73
2019-05-09T17:44:22.785Z,100015.00
2019-05-09T17:47:14.165Z,100017.48
2019-05-09T17:50:07.821Z,100022.50
2019-05-09T17:52:59.523Z,100027.84
2019-05-09T17:55:50.883Z,100028.47
2019-05-09T17:58:42.159Z,100031.11
2019-05-09T18:01:33.718Z,100029.27
2019-05-09T18:04:28.574Z,100037.05
2019-05-09T18:07:20.104Z,100040.33
2019-05-09T18:10:12.214Z,100042.91
2019-05-09T18:13:03.574Z,100045.97
2019-05-09T18:15:55.219Z,100046.95
2019-05-09T18:18:48.102Z,100051.03
2019-05-09T18:21:49.946Z,100056.20
2019-05-09T18:24:32.880Z,100060.47
2019-05-09T18:27:24.310Z,100063.47
2019-05-09T18:30:16.396Z,100057.63
2019-05-09T18:33:32.847Z,100056.38
2019-05-09T18:36:24.236Z,100058.06
2019-05-09T18:39:15.834Z,100060.78
2019-05-09T18:42:08.708Z,100058.77
2019-05-09T18:45:00.564Z,100062.12
2019-05-09T18:47:51.849Z,100069.53
2019-05-09T18:50:43.184Z,100066.90
2019-05-09T18:53:34.653Z,100065.09
2019-05-09T18:56:26.185Z,100074.94
2019-05-09T18:59:17.699Z,100083.59
2019-05-09T19:02:09.112Z,100083.03
2019-05-09T19:05:00.495Z,100077.55
2019-05-09T19:07:52.111Z,100083.00
2019-05-09T19:10:43.907Z,100086.88
2019-05-09T19:13:35.570Z,100089.64
2019-05-09T19:16:36.315Z,100099.20
2019-05-09T19:19:38.940Z,100098.97
2019-05-09T19:22:30.446Z,100097.81
2019-05-09T19:25:21.726Z,100098.35
2019-05-09T19:28:13.258Z,100108.27
2019-05-09T19:31:04.990Z,100117.92
2019-05-09T19:33:56.302Z,100117.09
2019-05-09T19:36:48.150Z,100129.06
2019-05-09T19:39:39.748Z,100122.47
2019-05-09T19:42:32.235Z,100127.92
2019-05-09T19:45:23.769Z,100131.56
2019-05-09T19:48:16.401Z,100133.10
2019-05-09T19:51:07.711Z,100135.44
2019-05-09T19:53:59.227Z,100140.97
2019-05-09T19:56:50.940Z,100149.97
2019-05-09T19:59:44.031Z,100153.56
2019-05-09T20:02:35.615Z,100157.61
2019-05-09T20:05:27.239Z,100156.92
2019-05-09T20:08:18.559Z,100161.53
2019-05-09T20:11:24.830Z,100168.02
2019-05-09T20:14:20.562Z,100175.98
2019-05-09T20:17:12.189Z,100175.15
2019-05-09T20:20:03.604Z,100177.28
2019-05-09T20:22:54.873Z,100179.30
2019-05-09T20:25:46.351Z,100179.41
2019-05-09T20:28:37.873Z,100184.86
2019-05-09T20:31:29.295Z,100184.20
2019-05-09T20:34:20.813Z,100190.89
2019-05-09T20:37:12.225Z,100194.34
2019-05-09T20:40:05.774Z,100195.27
2019-05-09T20:42:57.977Z,100199.34
2019-05-09T20:45:50.432Z,100202.49
2019-05-09T20:48:41.986Z,100209.38
2019-05-09T20:51:34.422Z,100211.67
2019-05-09T20:54:26.187Z,100215.82
2019-05-09T20:57:18.107Z,100217.95
2019-05-09T21:00:09.746Z,100221.55
2019-05-09T21:03:01.380Z,100223.37
2019-05-09T21:05:53.419Z,100224.19
2019-05-09T21:08:45.543Z,100237.59
2019-05-09T21:11:37.474Z,100229.00
2019-05-09T21:14:29.665Z,100238.64
2019-05-09T21:17:21.448Z,100245.84
2019-05-09T21:20:13.714Z,100247.88
2019-05-09T21:23:05.569Z,100245.64
2019-05-09T21:25:57.432Z,100258.61
2019-05-09T21:28:49.265Z,100258.27
2019-05-09T21:31:40.845Z,100258.50
2019-05-09T21:34:32.357Z,100275.38
2019-05-09T21:37:24.017Z,100271.72
2019-05-09T21:40:15.611Z,100284.38
2019-05-09T21:43:07.352Z,100286.58
2019-05-09T21:45:58.662Z,100295.41
2019-05-09T21:48:50.023Z,100306.02
2019-05-09T21:51:41.573Z,100308.08
2019-05-09T21:54:33.661Z,100309.69
2019-05-09T21:57:36.897Z,100306.66
2019-05-09T22:00:34.701Z,100308.69
2019-05-09T22:03:28.555Z,100312.51
2019-05-09T22:06:20.129Z,100317.61
2019-05-09T22:09:12.285Z,100319.09
2019-05-09T22:12:04.618Z,100321.78
2019-05-09T22:14:55.961Z,100321.47
2019-05-09T22:17:47.386Z,100324.06
2019-05-09T22:20:38.805Z,100327.26
2019-05-09T22:23:30.139Z,100324.83
2019-05-09T22:26:21.497Z,100330.61
2019-05-09T22:29:13.162Z,100329.58
2019-05-09T22:32:04.476Z,100334.67
2019-05-09T22:34:56.050Z,100338.88
2019-05-09T22:37:47.583Z,100336.39
2019-05-09T22:40:38.914Z,100342.17
2019-05-09T22:43:30.260Z,100347.16
2019-05-09T22:46:21.824Z,100343.59
2019-05-09T22:49:13.494Z,100341.78
2019-05-09T22:52:05.824Z,100344.14
2019-05-09T22:54:57.469Z,100344.02
2019-05-09T22:57:49.052Z,100348.48
2019-05-09T23:00:40.555Z,100342.37
2019-05-09T23:03:31.940Z,100347.59
2019-05-09T23:06:23.337Z,100352.73
2019-05-09T23:09:15.008Z,100353.35
2019-05-09T23:12:06.702Z,100360.33
2019-05-09T23:14:58.220Z,100362.55
2019-05-09T23:17:49.742Z,100358.39
2019-05-09T23:20:56.309Z,100364.13
2019-05-09T23:23:53.853Z,100363.50
2019-05-09T23:26:45.195Z,100370.98
2019-05-09T23:29:36.520Z,100372.73
2019-05-09T23:32:33.354Z,100380.38
2019-05-09T23:35:25.743Z,100380.70
2019-05-09T23:38:17.247Z,100383.30
2019-05-09T23:41:10.015Z,100387.98
2019-05-09T23:44:01.370Z,100390.16
2019-05-09T23:46:53.039Z,100393.34
2019-05-09T23:49:44.433Z,100388.25
2019-05-09T23:52:35.851Z,100395.64
2019-05-09T23:55:45.271Z,100395.48
2019-05-09T23:58:54.760Z,100409.19
